Time;durP1;ratioP1;P1;durP2;ratioP2;P2;SDS_P1;SDS_P2;PMS_P1;PMS_P2;Temp;Humidity;BMP_temperature;BMP_pressure;BME280_temperature;BME280_humidity;BME280_pressure;Samples;Min_cycle;Max_cycle;Signal;HPM_P1;HPM_P2
2021/12/02 00:00:05;;;;;;;18.40;8.40;;;;;;;0.76;94.36;99741.78;31378663;28;20132;-75
2021/12/02 00:15:12;;;;;;;20.30;8.47;;;;;;;0.65;93.79;99755.78;31327395;28;20057;-75
2021/12/02 00:30:14;;;;;;;13.03;6.37;;;;;;;0.64;93.34;99777.50;31322404;28;20588;-76
2021/12/02 00:45:16;;;;;;;13.93;7.03;;;;;;;0.55;92.49;99791.09;31393078;28;20515;-75
2021/12/02 01:00:21;;;;;;;11.87;6.67;;;;;;;0.44;91.08;99808.09;31321187;28;20050;-74
2021/12/02 01:15:26;;;;;;;19.37;9.97;;;;;;;0.40;92.22;99804.59;31376108;28;20139;-74
2021/12/02 01:30:30;;;;;;;20.03;9.93;;;;;;;0.24;91.30;99829.50;31326122;28;20507;-74
2021/12/02 01:45:33;;;;;;;18.60;10.40;;;;;;;0.23;91.17;99832.53;31318624;28;20140;-75
2021/12/02 02:00:42;;;;;;;27.57;12.30;;;;;;;0.22;92.03;99839.00;31346824;28;20509;-74
2021/12/02 02:15:48;;;;;;;20.97;11.93;;;;;;;0.17;92.68;99817.94;31302856;28;20048;-73
2021/12/02 02:30:50;;;;;;;22.83;12.20;;;;;;;0.07;94.06;99821.94;31363891;28;20073;-74
2021/12/02 02:45:53;;;;;;;19.40;10.53;;;;;;;0.09;94.50;99827.72;31325917;28;20454;-74
2021/12/02 03:01:26;;;;;;;27.07;12.00;;;;;;;0.02;95.96;99843.59;31325609;28;20099;-72
2021/12/02 03:17:05;;;;;;;23.37;12.83;;;;;;;-0.02;96.33;99870.22;31305604;28;20069;-75
2021/12/02 03:31:42;;;;;;;20.63;11.07;;;;;;;-0.09;97.37;99875.41;31293782;28;20065;-74
2021/12/02 03:46:44;;;;;;;20.37;10.97;;;;;;;-0.21;98.05;99883.56;31315997;28;20486;-74
2021/12/02 04:01:47;;;;;;;19.90;10.60;;;;;;;-0.26;97.61;99886.53;31269259;28;20049;-74
2021/12/02 04:17:08;;;;;;;25.40;12.60;;;;;;;-0.28;98.41;99882.66;31295268;28;20145;-74
2021/12/02 04:32:10;;;;;;;18.60;10.30;;;;;;;-0.38;98.88;99895.41;31322244;28;20053;-73
2021/12/02 04:47:12;;;;;;;23.33;12.20;;;;;;;-0.43;99.49;99901.00;31326357;28;20144;-74
2021/12/02 05:02:14;;;;;;;24.57;13.77;;;;;;;-0.29;98.33;99913.13;31314358;28;20059;-73
2021/12/02 05:17:17;;;;;;;31.43;13.77;;;;;;;-0.11;97.96;99930.25;31292885;28;20055;-75
2021/12/02 05:32:18;;;;;;;23.37;11.20;;;;;;;-0.06;98.33;99933.44;31311682;28;20085;-74
2021/12/02 05:47:21;;;;;;;21.20;9.37;;;;;;;0.51;98.37;99939.06;31284755;28;20060;-73
2021/12/02 06:02:23;;;;;;;13.53;8.27;;;;;;;2.02;91.82;99965.84;31327133;28;20067;-74
2021/12/02 06:17:25;;;;;;;18.20;8.97;;;;;;;2.77;87.05;99972.81;31321074;28;20084;-73
2021/12/02 06:32:27;;;;;;;18.87;8.80;;;;;;;3.52;86.70;99963.47;31315930;28;20079;-75
2021/12/02 06:47:32;;;;;;;16.17;7.57;;;;;;;4.05;85.30;99981.78;31307780;28;20136;-75
2021/12/02 07:02:35;;;;;;;18.30;8.70;;;;;;;4.49;84.67;99992.31;31307310;28;20045;-73
2021/12/02 07:17:37;;;;;;;17.97;10.27;;;;;;;5.78;77.45;100000.09;31320451;28;20418;-73
2021/12/02 07:32:40;;;;;;;18.80;8.80;;;;;;;4.62;80.13;100014.25;31322995;28;20691;-74
2021/12/02 07:47:42;;;;;;;17.33;8.30;;;;;;;4.79;83.97;100021.59;31300954;28;20792;-74
2021/12/02 08:02:50;;;;;;;15.20;7.77;;;;;;;4.97;80.99;100033.16;31326752;28;20073;-75
2021/12/02 08:17:53;;;;;;;12.40;6.97;;;;;;;4.04;83.34;100023.22;31337687;28;20046;-74
2021/12/02 08:32:57;;;;;;;12.13;8.00;;;;;;;4.76;80.82;100004.28;31340296;28;20132;-74
2021/12/02 08:48:01;;;;;;;13.90;8.10;;;;;;;5.29;76.65;99975.91;31340095;28;20049;-75
2021/12/02 09:03:06;;;;;;;16.93;8.33;;;;;;;4.25;80.86;99961.50;31337296;28;20098;-74
2021/12/02 09:18:09;;;;;;;14.20;6.90;;;;;;;3.87;84.29;99948.69;31332436;28;20077;-75
2021/12/02 09:33:11;;;;;;;17.37;7.43;;;;;;;4.06;85.14;99914.22;31354498;28;20144;-77
2021/12/02 09:48:13;;;;;;;10.43;6.27;;;;;;;4.93;82.19;99873.69;31346944;28;20053;-75
2021/12/02 10:03:25;;;;;;;10.30;5.20;;;;;;;4.61;81.88;99854.09;31341455;28;20265;-75
2021/12/02 10:18:35;;;;;;;7.87;4.20;;;;;;;4.66;80.64;99826.81;31322468;28;20077;-75
2021/12/02 10:33:39;;;;;;;7.20;4.30;;;;;;;4.62;81.55;99823.34;31340410;28;20426;-76
2021/12/02 10:48:50;;;;;;;6.03;3.70;;;;;;;5.13;85.22;99786.03;31331006;28;20133;-76
2021/12/02 11:04:05;;;;;;;7.87;4.10;;;;;;;5.72;85.87;99775.38;31301422;28;20542;-75
2021/12/02 11:19:21;;;;;;;2.93;2.13;;;;;;;5.79;87.85;99743.03;31331558;28;20478;-75
2021/12/02 11:34:30;;;;;;;8.33;3.93;;;;;;;6.09;89.16;99722.84;31322835;28;20513;-74
2021/12/02 11:49:32;;;;;;;5.73;3.73;;;;;;;6.30;90.67;99711.13;31320963;28;20131;-74
2021/12/02 12:04:38;;;;;;;8.77;4.03;;;;;;;6.50;92.23;99699.38;31321534;28;20063;-74
2021/12/02 12:19:43;;;;;;;5.57;2.90;;;;;;;6.89;92.96;99686.66;31332949;28;20437;-74
2021/12/02 12:50:29;;;;;;;2.00;1.43;;;;;;;7.58;92.86;99710.47;31313309;28;20081;-76
2021/12/02 13:05:55;;;;;;;4.43;2.00;;;;;;;7.63;93.83;99674.88;31362487;28;20147;-78
2021/12/02 13:20:57;;;;;;;2.73;1.93;;;;;;;7.49;94.86;99675.09;31308521;28;20589;-78
2021/12/02 13:35:59;;;;;;;3.77;2.10;;;;;;;7.45;95.93;99668.97;31402347;28;20131;-78
2021/12/02 13:51:02;;;;;;;5.60;2.20;;;;;;;7.40;97.02;99667.50;31339883;28;20041;-78
2021/12/02 14:06:07;;;;;;;4.57;2.80;;;;;;;7.48;97.77;99660.06;31324129;28;20064;-78
2021/12/02 14:21:12;;;;;;;4.70;2.60;;;;;;;7.48;98.21;99673.56;31306125;28;20055;-77
2021/12/02 14:36:16;;;;;;;5.53;3.27;;;;;;;7.56;99.03;99679.66;31333083;28;20144;-78
2021/12/02 14:51:18;;;;;;;6.60;2.90;;;;;;;7.59;99.64;99660.66;31348314;28;20055;-78
2021/12/02 15:06:36;;;;;;;8.00;3.80;;;;;;;7.57;99.75;99664.94;31330657;28;20524;-77
2021/12/02 15:21:41;;;;;;;10.40;2.50;;;;;;;7.40;100.00;99682.94;31311816;28;20073;-77
2021/12/02 15:36:47;;;;;;;8.03;3.90;;;;;;;7.21;100.00;99694.38;31339684;28;20425;-79
2021/12/02 15:51:50;;;;;;;7.83;3.97;;;;;;;7.05;100.00;99709.22;31294269;28;20049;-77
2021/12/02 16:07:13;;;;;;;5.60;3.30;;;;;;;6.92;100.00;99702.03;31307484;28;20127;-78
2021/12/02 16:22:21;;;;;;;7.93;3.67;;;;;;;6.80;100.00;99700.63;31359666;28;20084;-78
2021/12/02 16:37:23;;;;;;;5.00;3.57;;;;;;;6.78;100.00;99708.34;31365536;28;20044;-77
2021/12/02 16:52:25;;;;;;;4.50;3.10;;;;;;;6.76;100.00;99726.88;31357025;28;20060;-80
2021/12/02 17:07:26;;;;;;;5.53;3.80;;;;;;;6.58;100.00;99704.72;31341933;28;20049;-78
2021/12/02 17:22:28;;;;;;;8.47;2.67;;;;;;;6.57;100.00;99703.94;31350029;28;20049;-74
2021/12/02 17:37:30;;;;;;;5.47;2.50;;;;;;;6.74;100.00;99723.81;31351485;28;20116;-74
2021/12/02 17:52:33;;;;;;;7.90;4.93;;;;;;;6.87;100.00;99727.53;31333004;28;20045;-75
2021/12/02 18:07:39;;;;;;;12.63;3.50;;;;;;;6.79;100.00;99707.19;31364608;28;20067;-75
2021/12/02 18:22:41;;;;;;;13.90;3.33;;;;;;;6.75;100.00;99715.31;31303994;28;20136;-73
2021/12/02 18:37:43;;;;;;;8.77;3.53;;;;;;;6.69;100.00;99698.03;31298574;28;20542;-75
2021/12/02 18:52:46;;;;;;;13.97;3.93;;;;;;;6.66;100.00;99711.56;31340446;28;20048;-75
2021/12/02 19:37:53;;;;;;;7.20;4.00;;;;;;;6.63;100.00;99723.13;31318290;28;20141;-76
2021/12/02 19:52:55;;;;;;;9.17;3.83;;;;;;;6.69;100.00;99711.53;31329298;28;20041;-75
2021/12/02 20:07:57;;;;;;;12.37;4.47;;;;;;;6.74;100.00;99740.75;31298068;28;20052;-73
2021/12/02 20:23:01;;;;;;;9.57;4.27;;;;;;;6.85;100.00;99722.53;31303046;28;20037;-73
2021/12/02 20:38:04;;;;;;;10.13;4.90;;;;;;;6.92;100.00;99740.56;31294033;28;20058;-74
2021/12/02 20:53:07;;;;;;;9.97;4.03;;;;;;;6.91;100.00;99740.97;31304898;28;20052;-74
2021/12/02 21:08:09;;;;;;;11.00;5.10;;;;;;;6.88;100.00;99745.25;31362294;28;20053;-75
2021/12/02 21:23:12;;;;;;;13.33;5.43;;;;;;;6.88;100.00;99750.63;31343043;28;20053;-73
2021/12/02 21:38:16;;;;;;;11.30;4.77;;;;;;;6.93;100.00;99763.69;31328748;28;20057;-75
2021/12/02 21:53:19;;;;;;;15.27;7.27;;;;;;;6.89;100.00;99746.78;31338130;28;20052;-73
2021/12/02 22:08:21;;;;;;;6.50;4.23;;;;;;;6.86;100.00;99739.47;31357462;28;20050;-74
2021/12/02 22:23:24;;;;;;;10.00;5.43;;;;;;;6.83;100.00;99748.41;31311968;28;20052;-74
2021/12/02 22:38:27;;;;;;;18.73;8.00;;;;;;;6.77;100.00;99739.19;31311920;28;20041;-75
2021/12/02 22:53:29;;;;;;;16.33;7.23;;;;;;;6.76;100.00;99743.84;31334243;28;20045;-73
2021/12/02 23:08:32;;;;;;;13.47;6.73;;;;;;;6.83;100.00;99729.50;31324790;28;20067;-74
2021/12/02 23:23:34;;;;;;;17.77;7.37;;;;;;;6.86;100.00;99739.47;31368623;28;20156;-74
2021/12/02 23:38:40;;;;;;;12.83;7.07;;;;;;;6.86;100.00;99739.47;31346125;28;20056;-74
2021/12/02 23:53:42;;;;;;;10.90;4.67;;;;;;;6.83;100.00;99759.97;31318709;28;20427;-73
